sensor_id;sensor_type;location;lat;lon;timestamp;P1;durP1;ratioP1;P2;durP2;ratioP2
2638;SDS011;1329;51.384;7.122;2023-04-15T00:01:26;5.40;;;4.63;;
2638;SDS011;1329;51.384;7.122;2023-04-15T00:04:09;5.90;;;4.57;;
2638;SDS011;1329;51.384;7.122;2023-04-15T00:06:57;6.00;;;4.83;;
2638;SDS011;1329;51.384;7.122;2023-04-15T00:12:33;6.23;;;5.00;;
2638;SDS011;1329;51.384;7.122;2023-04-15T00:15:27;7.23;;;5.27;;
2638;SDS011;1329;51.384;7.122;2023-04-15T00:18:17;5.40;;;4.63;;
2638;SDS011;1329;51.384;7.122;2023-04-15T00:20:58;5.87;;;5.13;;
2638;SDS011;1329;51.384;7.122;2023-04-15T00:23:52;6.67;;;5.23;;
2638;SDS011;1329;51.384;7.122;2023-04-15T00:26:48;5.87;;;5.27;;
2638;SDS011;1329;51.384;7.122;2023-04-15T00:29:31;7.60;;;5.60;;
2638;SDS011;1329;51.384;7.122;2023-04-15T00:32:15;8.40;;;5.70;;
2638;SDS011;1329;51.384;7.122;2023-04-15T00:35:06;5.90;;;5.30;;
2638;SDS011;1329;51.384;7.122;2023-04-15T00:37:54;6.23;;;5.60;;
2638;SDS011;1329;51.384;7.122;2023-04-15T00:40:42;8.80;;;5.90;;
2638;SDS011;1329;51.384;7.122;2023-04-15T00:43:20;6.20;;;5.60;;
2638;SDS011;1329;51.384;7.122;2023-04-15T00:46:17;5.67;;;5.10;;
2638;SDS011;1329;51.384;7.122;2023-04-15T00:49:07;6.13;;;5.53;;
2638;SDS011;1329;51.384;7.122;2023-04-15T00:51:49;6.20;;;5.43;;
2638;SDS011;1329;51.384;7.122;2023-04-15T00:54:27;6.53;;;5.80;;
2638;SDS011;1329;51.384;7.122;2023-04-15T00:57:11;6.40;;;5.73;;
2638;SDS011;1329;51.384;7.122;2023-04-15T01:00:02;8.63;;;5.87;;
2638;SDS011;1329;51.384;7.122;2023-04-15T01:05:55;7.27;;;6.20;;
2638;SDS011;1329;51.384;7.122;2023-04-15T01:08:25;7.13;;;6.47;;
2638;SDS011;1329;51.384;7.122;2023-04-15T01:10:53;7.37;;;6.40;;
2638;SDS011;1329;51.384;7.122;2023-04-15T01:13:22;8.63;;;6.50;;
2638;SDS011;1329;51.384;7.122;2023-04-15T01:15:50;6.97;;;6.20;;
2638;SDS011;1329;51.384;7.122;2023-04-15T01:18:20;6.47;;;5.67;;
2638;SDS011;1329;51.384;7.122;2023-04-15T01:20:49;6.70;;;6.00;;
2638;SDS011;1329;51.384;7.122;2023-04-15T01:23:16;6.63;;;5.80;;
2638;SDS011;1329;51.384;7.122;2023-04-15T01:25:45;7.00;;;5.83;;
2638;SDS011;1329;51.384;7.122;2023-04-15T01:28:13;7.87;;;6.00;;
2638;SDS011;1329;51.384;7.122;2023-04-15T01:30:40;8.03;;;6.20;;
2638;SDS011;1329;51.384;7.122;2023-04-15T01:33:08;8.53;;;5.80;;
2638;SDS011;1329;51.384;7.122;2023-04-15T01:35:36;9.80;;;6.03;;
2638;SDS011;1329;51.384;7.122;2023-04-15T01:38:04;9.27;;;6.23;;
2638;SDS011;1329;51.384;7.122;2023-04-15T01:40:33;6.50;;;5.83;;
2638;SDS011;1329;51.384;7.122;2023-04-15T01:43:02;8.93;;;6.80;;
2638;SDS011;1329;51.384;7.122;2023-04-15T01:45:30;7.10;;;6.37;;
2638;SDS011;1329;51.384;7.122;2023-04-15T01:47:58;7.90;;;6.77;;
2638;SDS011;1329;51.384;7.122;2023-04-15T01:50:26;7.97;;;6.10;;
2638;SDS011;1329;51.384;7.122;2023-04-15T01:52:53;9.30;;;6.40;;
2638;SDS011;1329;51.384;7.122;2023-04-15T01:55:20;8.07;;;6.33;;
2638;SDS011;1329;51.384;7.122;2023-04-15T01:57:47;8.53;;;6.70;;
2638;SDS011;1329;51.384;7.122;2023-04-15T02:00:17;8.57;;;6.27;;
2638;SDS011;1329;51.384;7.122;2023-04-15T02:02:48;8.03;;;6.30;;
2638;SDS011;1329;51.384;7.122;2023-04-15T02:05:16;7.90;;;6.30;;
2638;SDS011;1329;51.384;7.122;2023-04-15T02:07:43;7.20;;;6.33;;
2638;SDS011;1329;51.384;7.122;2023-04-15T02:10:11;7.67;;;6.63;;
2638;SDS011;1329;51.384;7.122;2023-04-15T02:12:40;7.13;;;6.00;;
2638;SDS011;1329;51.384;7.122;2023-04-15T02:15:08;6.87;;;6.20;;
2638;SDS011;1329;51.384;7.122;2023-04-15T02:17:37;7.70;;;6.90;;
2638;SDS011;1329;51.384;7.122;2023-04-15T02:20:05;7.90;;;6.30;;
2638;SDS011;1329;51.384;7.122;2023-04-15T02:22:34;8.67;;;6.50;;
2638;SDS011;1329;51.384;7.122;2023-04-15T02:25:01;8.87;;;6.90;;
2638;SDS011;1329;51.384;7.122;2023-04-15T02:27:29;7.90;;;6.53;;
2638;SDS011;1329;51.384;7.122;2023-04-15T02:29:56;8.43;;;7.10;;
2638;SDS011;1329;51.384;7.122;2023-04-15T02:32:23;8.43;;;6.80;;
2638;SDS011;1329;51.384;7.122;2023-04-15T02:34:52;8.07;;;6.90;;
2638;SDS011;1329;51.384;7.122;2023-04-15T02:37:19;7.37;;;6.20;;
2638;SDS011;1329;51.384;7.122;2023-04-15T02:39:46;7.30;;;6.60;;
2638;SDS011;1329;51.384;7.122;2023-04-15T02:42:13;8.00;;;7.20;;
2638;SDS011;1329;51.384;7.122;2023-04-15T02:44:40;9.77;;;6.90;;
2638;SDS011;1329;51.384;7.122;2023-04-15T02:47:07;7.80;;;7.00;;
2638;SDS011;1329;51.384;7.122;2023-04-15T02:49:35;8.07;;;7.20;;
2638;SDS011;1329;51.384;7.122;2023-04-15T02:52:05;9.50;;;7.43;;
2638;SDS011;1329;51.384;7.122;2023-04-15T02:54:34;9.50;;;7.37;;
2638;SDS011;1329;51.384;7.122;2023-04-15T02:57:01;8.67;;;7.60;;
2638;SDS011;1329;51.384;7.122;2023-04-15T02:59:30;8.70;;;7.77;;
2638;SDS011;1329;51.384;7.122;2023-04-15T03:01:58;8.00;;;6.63;;
2638;SDS011;1329;51.384;7.122;2023-04-15T03:04:28;8.83;;;7.13;;
2638;SDS011;1329;51.384;7.122;2023-04-15T03:06:55;12.10;;;7.57;;
2638;SDS011;1329;51.384;7.122;2023-04-15T03:09:24;9.07;;;7.80;;
2638;SDS011;1329;51.384;7.122;2023-04-15T03:11:51;8.50;;;7.60;;
2638;SDS011;1329;51.384;7.122;2023-04-15T03:14:19;10.23;;;7.70;;
2638;SDS011;1329;51.384;7.122;2023-04-15T03:16:46;8.60;;;7.73;;
2638;SDS011;1329;51.384;7.122;2023-04-15T03:19:14;8.50;;;7.60;;
2638;SDS011;1329;51.384;7.122;2023-04-15T03:21:41;8.33;;;7.53;;
2638;SDS011;1329;51.384;7.122;2023-04-15T03:24:14;9.63;;;8.03;;
2638;SDS011;1329;51.384;7.122;2023-04-15T03:26:43;9.20;;;7.67;;
2638;SDS011;1329;51.384;7.122;2023-04-15T03:29:10;10.77;;;7.87;;
2638;SDS011;1329;51.384;7.122;2023-04-15T03:31:37;8.40;;;7.37;;
2638;SDS011;1329;51.384;7.122;2023-04-15T03:34:04;9.23;;;7.27;;
2638;SDS011;1329;51.384;7.122;2023-04-15T03:36:33;7.73;;;7.03;;
2638;SDS011;1329;51.384;7.122;2023-04-15T03:39:01;9.20;;;7.43;;
2638;SDS011;1329;51.384;7.122;2023-04-15T03:41:32;8.20;;;7.37;;
2638;SDS011;1329;51.384;7.122;2023-04-15T03:44:00;8.30;;;7.37;;
2638;SDS011;1329;51.384;7.122;2023-04-15T03:46:29;7.87;;;7.13;;
2638;SDS011;1329;51.384;7.122;2023-04-15T03:48:57;8.77;;;7.57;;
2638;SDS011;1329;51.384;7.122;2023-04-15T03:51:25;8.47;;;7.67;;
2638;SDS011;1329;51.384;7.122;2023-04-15T03:53:52;8.50;;;7.60;;
2638;SDS011;1329;51.384;7.122;2023-04-15T03:56:20;9.30;;;7.87;;
2638;SDS011;1329;51.384;7.122;2023-04-15T03:58:48;8.30;;;7.50;;
2638;SDS011;1329;51.384;7.122;2023-04-15T04:01:17;7.97;;;7.17;;
2638;SDS011;1329;51.384;7.122;2023-04-15T04:03:44;9.30;;;7.83;;
2638;SDS011;1329;51.384;7.122;2023-04-15T04:06:11;9.27;;;8.00;;
2638;SDS011;1329;51.384;7.122;2023-04-15T04:08:38;9.17;;;8.17;;
2638;SDS011;1329;51.384;7.122;2023-04-15T04:11:05;8.77;;;7.57;;
2638;SDS011;1329;51.384;7.122;2023-04-15T04:13:33;8.20;;;7.40;;
2638;SDS011;1329;51.384;7.122;2023-04-15T04:16:00;10.00;;;7.90;;
2638;SDS011;1329;51.384;7.122;2023-04-15T04:18:29;8.37;;;7.53;;
2638;SDS011;1329;51.384;7.122;2023-04-15T04:20:57;8.50;;;7.70;;
2638;SDS011;1329;51.384;7.122;2023-04-15T04:23:24;9.00;;;7.70;;
2638;SDS011;1329;51.384;7.122;2023-04-15T04:25:51;8.20;;;7.40;;
2638;SDS011;1329;51.384;7.122;2023-04-15T04:28:18;7.80;;;7.10;;
2638;SDS011;1329;51.384;7.122;2023-04-15T04:30:45;8.60;;;7.70;;
2638;SDS011;1329;51.384;7.122;2023-04-15T04:33:13;8.90;;;8.10;;
2638;SDS011;1329;51.384;7.122;2023-04-15T04:35:42;8.97;;;8.07;;
2638;SDS011;1329;51.384;7.122;2023-04-15T04:38:10;9.83;;;8.03;;
2638;SDS011;1329;51.384;7.122;2023-04-15T04:40:49;8.47;;;7.47;;
2638;SDS011;1329;51.384;7.122;2023-04-15T04:43:34;8.80;;;7.80;;
2638;SDS011;1329;51.384;7.122;2023-04-15T04:46:01;8.60;;;7.80;;
2638;SDS011;1329;51.384;7.122;2023-04-15T04:48:28;8.50;;;7.43;;
2638;SDS011;1329;51.384;7.122;2023-04-15T04:50:57;8.40;;;7.70;;
2638;SDS011;1329;51.384;7.122;2023-04-15T04:53:28;9.03;;;8.03;;
2638;SDS011;1329;51.384;7.122;2023-04-15T04:55:55;8.30;;;7.50;;
2638;SDS011;1329;51.384;7.122;2023-04-15T04:58:22;8.87;;;7.97;;
2638;SDS011;1329;51.384;7.122;2023-04-15T05:00:52;9.27;;;7.73;;
2638;SDS011;1329;51.384;7.122;2023-04-15T05:03:19;8.80;;;7.97;;
2638;SDS011;1329;51.384;7.122;2023-04-15T05:05:48;10.17;;;8.13;;
2638;SDS011;1329;51.384;7.122;2023-04-15T05:08:17;9.00;;;8.10;;
2638;SDS011;1329;51.384;7.122;2023-04-15T05:10:43;8.80;;;7.93;;
2638;SDS011;1329;51.384;7.122;2023-04-15T05:13:11;9.33;;;7.60;;
2638;SDS011;1329;51.384;7.122;2023-04-15T05:15:44;9.00;;;7.97;;
2638;SDS011;1329;51.384;7.122;2023-04-15T05:18:14;7.97;;;7.17;;
2638;SDS011;1329;51.384;7.122;2023-04-15T05:20:40;9.07;;;8.17;;
2638;SDS011;1329;51.384;7.122;2023-04-15T05:23:08;8.93;;;7.77;;
2638;SDS011;1329;51.384;7.122;2023-04-15T05:25:36;9.93;;;8.00;;
2638;SDS011;1329;51.384;7.122;2023-04-15T05:28:04;8.57;;;7.70;;
2638;SDS011;1329;51.384;7.122;2023-04-15T05:30:32;9.97;;;7.77;;
2638;SDS011;1329;51.384;7.122;2023-04-15T05:33:00;9.83;;;7.87;;
2638;SDS011;1329;51.384;7.122;2023-04-15T05:35:26;10.57;;;8.23;;
2638;SDS011;1329;51.384;7.122;2023-04-15T05:37:53;8.83;;;8.03;;
2638;SDS011;1329;51.384;7.122;2023-04-15T05:40:21;8.97;;;8.07;;
2638;SDS011;1329;51.384;7.122;2023-04-15T05:42:50;9.83;;;8.50;;
2638;SDS011;1329;51.384;7.122;2023-04-15T05:45:17;9.10;;;8.10;;
2638;SDS011;1329;51.384;7.122;2023-04-15T05:47:44;9.03;;;8.13;;
2638;SDS011;1329;51.384;7.122;2023-04-15T05:50:11;8.70;;;7.90;;
2638;SDS011;1329;51.384;7.122;2023-04-15T05:52:38;9.17;;;7.50;;
2638;SDS011;1329;51.384;7.122;2023-04-15T05:55:05;9.23;;;8.30;;
2638;SDS011;1329;51.384;7.122;2023-04-15T05:57:38;8.70;;;7.67;;
2638;SDS011;1329;51.384;7.122;2023-04-15T06:00:10;9.63;;;8.33;;
2638;SDS011;1329;51.384;7.122;2023-04-15T06:02:39;8.87;;;8.07;;
2638;SDS011;1329;51.384;7.122;2023-04-15T06:05:07;11.17;;;8.53;;
2638;SDS011;1329;51.384;7.122;2023-04-15T06:07:38;9.70;;;8.80;;
2638;SDS011;1329;51.384;7.122;2023-04-15T06:10:13;9.43;;;8.53;;
2638;SDS011;1329;51.384;7.122;2023-04-15T06:12:40;10.33;;;8.80;;
2638;SDS011;1329;51.384;7.122;2023-04-15T06:15:10;13.37;;;11.97;;
2638;SDS011;1329;51.384;7.122;2023-04-15T06:17:37;16.03;;;12.93;;
2638;SDS011;1329;51.384;7.122;2023-04-15T06:20:11;15.30;;;13.70;;
2638;SDS011;1329;51.384;7.122;2023-04-15T06:22:38;15.30;;;13.70;;
2638;SDS011;1329;51.384;7.122;2023-04-15T06:25:06;15.40;;;13.80;;
2638;SDS011;1329;51.384;7.122;2023-04-15T06:27:35;15.43;;;13.73;;
2638;SDS011;1329;51.384;7.122;2023-04-15T06:30:03;15.43;;;13.83;;
2638;SDS011;1329;51.384;7.122;2023-04-15T06:32:32;15.67;;;14.07;;
2638;SDS011;1329;51.384;7.122;2023-04-15T06:35:00;16.37;;;13.90;;
2638;SDS011;1329;51.384;7.122;2023-04-15T06:37:28;15.00;;;13.63;;
2638;SDS011;1329;51.384;7.122;2023-04-15T06:39:55;15.93;;;14.30;;
2638;SDS011;1329;51.384;7.122;2023-04-15T06:42:30;16.80;;;15.07;;
2638;SDS011;1329;51.384;7.122;2023-04-15T06:44:58;18.60;;;16.07;;
2638;SDS011;1329;51.384;7.122;2023-04-15T06:47:25;17.17;;;15.37;;
2638;SDS011;1329;51.384;7.122;2023-04-15T06:49:57;17.83;;;15.67;;
2638;SDS011;1329;51.384;7.122;2023-04-15T06:52:29;17.43;;;15.63;;
2638;SDS011;1329;51.384;7.122;2023-04-15T06:54:56;16.57;;;14.97;;
2638;SDS011;1329;51.384;7.122;2023-04-15T06:57:23;15.33;;;13.80;;
2638;SDS011;1329;51.384;7.122;2023-04-15T07:00:04;15.03;;;13.50;;
2638;SDS011;1329;51.384;7.122;2023-04-15T07:02:35;15.33;;;13.80;;
2638;SDS011;1329;51.384;7.122;2023-04-15T07:05:11;15.77;;;14.10;;
2638;SDS011;1329;51.384;7.122;2023-04-15T07:07:38;15.67;;;14.17;;
2638;SDS011;1329;51.384;7.122;2023-04-15T07:10:07;14.70;;;12.97;;
2638;SDS011;1329;51.384;7.122;2023-04-15T07:12:36;15.43;;;13.97;;
2638;SDS011;1329;51.384;7.122;2023-04-15T07:15:03;15.83;;;14.13;;
2638;SDS011;1329;51.384;7.122;2023-04-15T07:17:32;15.60;;;14.10;;
2638;SDS011;1329;51.384;7.122;2023-04-15T07:20:13;15.20;;;13.70;;
2638;SDS011;1329;51.384;7.122;2023-04-15T07:22:46;15.87;;;14.27;;
2638;SDS011;1329;51.384;7.122;2023-04-15T07:25:13;17.70;;;15.90;;
2638;SDS011;1329;51.384;7.122;2023-04-15T07:27:43;17.53;;;15.77;;
2638;SDS011;1329;51.384;7.122;2023-04-15T07:30:11;18.47;;;16.63;;
2638;SDS011;1329;51.384;7.122;2023-04-15T07:32:39;18.57;;;16.70;;
2638;SDS011;1329;51.384;7.122;2023-04-15T07:35:17;18.07;;;16.17;;
2638;SDS011;1329;51.384;7.122;2023-04-15T07:37:45;18.47;;;16.57;;
2638;SDS011;1329;51.384;7.122;2023-04-15T07:40:15;17.20;;;15.43;;
2638;SDS011;1329;51.384;7.122;2023-04-15T07:42:45;17.07;;;15.37;;
2638;SDS011;1329;51.384;7.122;2023-04-15T07:45:17;17.00;;;15.27;;
2638;SDS011;1329;51.384;7.122;2023-04-15T07:47:45;15.87;;;14.20;;
2638;SDS011;1329;51.384;7.122;2023-04-15T07:50:15;16.67;;;14.97;;
2638;SDS011;1329;51.384;7.122;2023-04-15T07:52:47;15.63;;;14.13;;
2638;SDS011;1329;51.384;7.122;2023-04-15T07:55:16;15.43;;;13.93;;
2638;SDS011;1329;51.384;7.122;2023-04-15T07:57:47;14.87;;;13.40;;
2638;SDS011;1329;51.384;7.122;2023-04-15T08:00:15;14.07;;;12.77;;
2638;SDS011;1329;51.384;7.122;2023-04-15T08:02:43;13.87;;;12.43;;
2638;SDS011;1329;51.384;7.122;2023-04-15T08:05:18;13.63;;;12.23;;
2638;SDS011;1329;51.384;7.122;2023-04-15T08:07:46;14.20;;;12.80;;
2638;SDS011;1329;51.384;7.122;2023-04-15T08:10:13;13.50;;;12.20;;
2638;SDS011;1329;51.384;7.122;2023-04-15T08:12:40;13.13;;;11.83;;
2638;SDS011;1329;51.384;7.122;2023-04-15T08:15:08;13.57;;;12.20;;
2638;SDS011;1329;51.384;7.122;2023-04-15T08:17:37;14.57;;;12.70;;
2638;SDS011;1329;51.384;7.122;2023-04-15T08:20:07;12.67;;;11.37;;
2638;SDS011;1329;51.384;7.122;2023-04-15T08:22:36;12.80;;;11.53;;
2638;SDS011;1329;51.384;7.122;2023-04-15T08:25:04;12.77;;;11.47;;
2638;SDS011;1329;51.384;7.122;2023-04-15T08:27:31;12.80;;;11.50;;
2638;SDS011;1329;51.384;7.122;2023-04-15T08:29:58;11.80;;;10.70;;
2638;SDS011;1329;51.384;7.122;2023-04-15T08:32:25;11.47;;;10.40;;
2638;SDS011;1329;51.384;7.122;2023-04-15T08:34:55;11.03;;;9.93;;
2638;SDS011;1329;51.384;7.122;2023-04-15T08:37:22;9.10;;;8.27;;
2638;SDS011;1329;51.384;7.122;2023-04-15T08:39:52;7.82;;;7.10;;
2638;SDS011;1329;51.384;7.122;2023-04-15T08:42:30;7.55;;;6.85;;
2638;SDS011;1329;51.384;7.122;2023-04-15T08:45:03;7.40;;;6.80;;
2638;SDS011;1329;51.384;7.122;2023-04-15T08:47:35;7.07;;;6.38;;
2638;SDS011;1329;51.384;7.122;2023-04-15T08:50:05;7.25;;;6.55;;
2638;SDS011;1329;51.384;7.122;2023-04-15T08:52:36;7.78;;;6.97;;
2638;SDS011;1329;51.384;7.122;2023-04-15T08:55:05;7.53;;;6.82;;
2638;SDS011;1329;51.384;7.122;2023-04-15T08:57:35;7.20;;;6.35;;
2638;SDS011;1329;51.384;7.122;2023-04-15T09:00:04;7.03;;;6.32;;
2638;SDS011;1329;51.384;7.122;2023-04-15T09:02:33;6.60;;;6.00;;
2638;SDS011;1329;51.384;7.122;2023-04-15T09:05:01;7.43;;;6.63;;
2638;SDS011;1329;51.384;7.122;2023-04-15T09:07:32;7.55;;;6.85;;
2638;SDS011;1329;51.384;7.122;2023-04-15T09:10:01;6.70;;;6.10;;
2638;SDS011;1329;51.384;7.122;2023-04-15T09:12:33;7.40;;;6.75;;
2638;SDS011;1329;51.384;7.122;2023-04-15T09:15:01;7.18;;;6.47;;
2638;SDS011;1329;51.384;7.122;2023-04-15T09:17:33;7.15;;;6.20;;
2638;SDS011;1329;51.384;7.122;2023-04-15T09:20:07;5.95;;;5.45;;
2638;SDS011;1329;51.384;7.122;2023-04-15T09:22:39;6.50;;;5.90;;
2638;SDS011;1329;51.384;7.122;2023-04-15T09:25:25;5.68;;;5.18;;
2638;SDS011;1329;51.384;7.122;2023-04-15T09:27:56;5.72;;;5.22;;
2638;SDS011;1329;51.384;7.122;2023-04-15T09:30:26;5.68;;;4.80;;
2638;SDS011;1329;51.384;7.122;2023-04-15T09:32:55;5.28;;;4.88;;
2638;SDS011;1329;51.384;7.122;2023-04-15T09:35:24;5.50;;;4.95;;
2638;SDS011;1329;51.384;7.122;2023-04-15T09:38:00;5.07;;;4.68;;
2638;SDS011;1329;51.384;7.122;2023-04-15T09:40:32;4.90;;;4.47;;
2638;SDS011;1329;51.384;7.122;2023-04-15T09:43:01;5.43;;;4.95;;
2638;SDS011;1329;51.384;7.122;2023-04-15T09:45:36;4.70;;;4.30;;
2638;SDS011;1329;51.384;7.122;2023-04-15T09:48:14;5.00;;;4.60;;
2638;SDS011;1329;51.384;7.122;2023-04-15T09:50:46;4.55;;;4.15;;
2638;SDS011;1329;51.384;7.122;2023-04-15T09:53:15;4.97;;;4.57;;
2638;SDS011;1329;51.384;7.122;2023-04-15T09:55:48;4.53;;;4.13;;
2638;SDS011;1329;51.384;7.122;2023-04-15T09:58:17;4.93;;;4.53;;
2638;SDS011;1329;51.384;7.122;2023-04-15T10:00:46;5.00;;;4.60;;
2638;SDS011;1329;51.384;7.122;2023-04-15T10:03:17;5.28;;;4.78;;
2638;SDS011;1329;51.384;7.122;2023-04-15T10:05:47;4.90;;;4.50;;
2638;SDS011;1329;51.384;7.122;2023-04-15T10:08:17;4.78;;;4.38;;
2638;SDS011;1329;51.384;7.122;2023-04-15T10:10:50;5.20;;;4.78;;
2638;SDS011;1329;51.384;7.122;2023-04-15T10:13:18;5.18;;;4.78;;
2638;SDS011;1329;51.384;7.122;2023-04-15T10:15:49;5.85;;;5.35;;
2638;SDS011;1329;51.384;7.122;2023-04-15T10:18:27;6.18;;;5.68;;
2638;SDS011;1329;51.384;7.122;2023-04-15T10:20:59;5.45;;;5.05;;
2638;SDS011;1329;51.384;7.122;2023-04-15T10:23:28;5.68;;;5.18;;
2638;SDS011;1329;51.384;7.122;2023-04-15T10:25:57;6.50;;;5.97;;
2638;SDS011;1329;51.384;7.122;2023-04-15T10:28:25;5.95;;;5.45;;
2638;SDS011;1329;51.384;7.122;2023-04-15T10:30:52;5.65;;;5.18;;
2638;SDS011;1329;51.384;7.122;2023-04-15T10:33:21;5.90;;;5.40;;
2638;SDS011;1329;51.384;7.122;2023-04-15T10:35:51;6.07;;;5.57;;
2638;SDS011;1329;51.384;7.122;2023-04-15T10:38:32;5.43;;;4.93;;
2638;SDS011;1329;51.384;7.122;2023-04-15T10:41:14;5.30;;;4.80;;
2638;SDS011;1329;51.384;7.122;2023-04-15T10:43:44;5.30;;;4.88;;
2638;SDS011;1329;51.384;7.122;2023-04-15T10:46:33;5.25;;;4.75;;
2638;SDS011;1329;51.384;7.122;2023-04-15T10:49:06;5.45;;;4.95;;
2638;SDS011;1329;51.384;7.122;2023-04-15T10:51:36;5.75;;;5.25;;
2638;SDS011;1329;51.384;7.122;2023-04-15T10:54:12;5.90;;;5.40;;
2638;SDS011;1329;51.384;7.122;2023-04-15T10:56:44;5.47;;;4.97;;
2638;SDS011;1329;51.384;7.122;2023-04-15T10:59:16;5.30;;;4.80;;
2638;SDS011;1329;51.384;7.122;2023-04-15T11:01:53;5.83;;;5.33;;
2638;SDS011;1329;51.384;7.122;2023-04-15T11:07:33;5.40;;;4.90;;
2638;SDS011;1329;51.384;7.122;2023-04-15T11:10:05;5.28;;;4.78;;
2638;SDS011;1329;51.384;7.122;2023-04-15T11:13:23;5.20;;;4.80;;
2638;SDS011;1329;51.384;7.122;2023-04-15T11:15:56;5.53;;;5.07;;
2638;SDS011;1329;51.384;7.122;2023-04-15T11:18:26;5.32;;;4.85;;
2638;SDS011;1329;51.384;7.122;2023-04-15T11:21:01;5.30;;;4.80;;
2638;SDS011;1329;51.384;7.122;2023-04-15T11:23:36;5.83;;;5.33;;
2638;SDS011;1329;51.384;7.122;2023-04-15T11:26:06;5.80;;;5.30;;
2638;SDS011;1329;51.384;7.122;2023-04-15T11:28:38;5.57;;;5.17;;
2638;SDS011;1329;51.384;7.122;2023-04-15T11:31:10;5.93;;;5.43;;
2638;SDS011;1329;51.384;7.122;2023-04-15T11:33:45;5.33;;;4.93;;
2638;SDS011;1329;51.384;7.122;2023-04-15T11:36:19;5.43;;;4.93;;
2638;SDS011;1329;51.384;7.122;2023-04-15T11:38:49;5.93;;;5.35;;
2638;SDS011;1329;51.384;7.122;2023-04-15T11:41:19;5.70;;;5.20;;
2638;SDS011;1329;51.384;7.122;2023-04-15T11:43:51;5.67;;;5.17;;
2638;SDS011;1329;51.384;7.122;2023-04-15T11:46:19;6.03;;;5.53;;
2638;SDS011;1329;51.384;7.122;2023-04-15T11:48:47;6.03;;;5.53;;
2638;SDS011;1329;51.384;7.122;2023-04-15T11:51:17;6.00;;;5.50;;
2638;SDS011;1329;51.384;7.122;2023-04-15T11:53:46;6.93;;;5.28;;
2638;SDS011;1329;51.384;7.122;2023-04-15T11:56:16;6.00;;;5.50;;
2638;SDS011;1329;51.384;7.122;2023-04-15T11:58:52;6.40;;;5.80;;
2638;SDS011;1329;51.384;7.122;2023-04-15T12:01:32;6.60;;;6.00;;
2638;SDS011;1329;51.384;7.122;2023-04-15T12:04:00;6.10;;;5.60;;
2638;SDS011;1329;51.384;7.122;2023-04-15T12:06:39;6.67;;;5.97;;
2638;SDS011;1329;51.384;7.122;2023-04-15T12:09:11;6.80;;;6.20;;
2638;SDS011;1329;51.384;7.122;2023-04-15T12:11:45;6.67;;;6.07;;
2638;SDS011;1329;51.384;7.122;2023-04-15T12:14:23;6.93;;;6.33;;
2638;SDS011;1329;51.384;7.122;2023-04-15T12:16:58;9.43;;;7.37;;
2638;SDS011;1329;51.384;7.122;2023-04-15T12:19:36;8.03;;;7.33;;
2638;SDS011;1329;51.384;7.122;2023-04-15T12:22:08;7.43;;;6.72;;
2638;SDS011;1329;51.384;7.122;2023-04-15T12:24:37;7.10;;;6.40;;
2638;SDS011;1329;51.384;7.122;2023-04-15T12:27:05;7.00;;;6.40;;
2638;SDS011;1329;51.384;7.122;2023-04-15T12:29:36;6.13;;;5.63;;
2638;SDS011;1329;51.384;7.122;2023-04-15T12:32:11;6.93;;;6.30;;
2638;SDS011;1329;51.384;7.122;2023-04-15T12:34:48;6.07;;;5.55;;
2638;SDS011;1329;51.384;7.122;2023-04-15T12:37:20;5.85;;;5.35;;
2638;SDS011;1329;51.384;7.122;2023-04-15T12:39:50;5.97;;;5.47;;
2638;SDS011;1329;51.384;7.122;2023-04-15T12:42:18;5.80;;;5.30;;
2638;SDS011;1329;51.384;7.122;2023-04-15T12:44:48;6.07;;;5.47;;
2638;SDS011;1329;51.384;7.122;2023-04-15T12:47:18;5.03;;;4.53;;
2638;SDS011;1329;51.384;7.122;2023-04-15T12:49:46;5.10;;;4.70;;
2638;SDS011;1329;51.384;7.122;2023-04-15T12:52:16;6.17;;;4.87;;
2638;SDS011;1329;51.384;7.122;2023-04-15T12:54:52;5.27;;;4.77;;
2638;SDS011;1329;51.384;7.122;2023-04-15T12:57:19;5.23;;;4.73;;
2638;SDS011;1329;51.384;7.122;2023-04-15T12:59:48;5.30;;;4.80;;
2638;SDS011;1329;51.384;7.122;2023-04-15T13:02:17;5.63;;;5.13;;
2638;SDS011;1329;51.384;7.122;2023-04-15T13:04:45;5.10;;;4.70;;
2638;SDS011;1329;51.384;7.122;2023-04-15T13:07:15;5.30;;;4.80;;
2638;SDS011;1329;51.384;7.122;2023-04-15T13:09:45;4.80;;;4.40;;
2638;SDS011;1329;51.384;7.122;2023-04-15T13:12:18;5.60;;;5.00;;
2638;SDS011;1329;51.384;7.122;2023-04-15T13:14:45;5.35;;;4.85;;
2638;SDS011;1329;51.384;7.122;2023-04-15T13:17:17;5.37;;;4.97;;
2638;SDS011;1329;51.384;7.122;2023-04-15T13:19:48;5.50;;;5.10;;
2638;SDS011;1329;51.384;7.122;2023-04-15T13:22:18;5.75;;;5.25;;
2638;SDS011;1329;51.384;7.122;2023-04-15T13:24:45;5.43;;;4.93;;
2638;SDS011;1329;51.384;7.122;2023-04-15T13:27:13;5.22;;;4.72;;
2638;SDS011;1329;51.384;7.122;2023-04-15T13:29:44;5.00;;;4.60;;
2638;SDS011;1329;51.384;7.122;2023-04-15T13:32:13;4.73;;;4.33;;
2638;SDS011;1329;51.384;7.122;2023-04-15T13:34:40;4.33;;;3.97;;
2638;SDS011;1329;51.384;7.122;2023-04-15T13:37:07;4.38;;;3.97;;
2638;SDS011;1329;51.384;7.122;2023-04-15T13:39:41;4.13;;;3.83;;
2638;SDS011;1329;51.384;7.122;2023-04-15T13:42:14;4.87;;;4.37;;
2638;SDS011;1329;51.384;7.122;2023-04-15T13:44:41;4.70;;;4.30;;
2638;SDS011;1329;51.384;7.122;2023-04-15T13:47:21;5.40;;;4.90;;
2638;SDS011;1329;51.384;7.122;2023-04-15T13:49:49;5.63;;;5.00;;
2638;SDS011;1329;51.384;7.122;2023-04-15T13:52:17;5.43;;;4.93;;
2638;SDS011;1329;51.384;7.122;2023-04-15T13:54:48;5.37;;;4.87;;
2638;SDS011;1329;51.384;7.122;2023-04-15T13:57:16;5.40;;;4.90;;
2638;SDS011;1329;51.384;7.122;2023-04-15T13:59:43;5.70;;;5.10;;
2638;SDS011;1329;51.384;7.122;2023-04-15T14:02:14;5.77;;;5.27;;
2638;SDS011;1329;51.384;7.122;2023-04-15T14:04:42;6.00;;;5.50;;
2638;SDS011;1329;51.384;7.122;2023-04-15T14:07:08;5.67;;;5.27;;
2638;SDS011;1329;51.384;7.122;2023-04-15T14:09:38;5.93;;;5.40;;
2638;SDS011;1329;51.384;7.122;2023-04-15T14:12:05;5.43;;;4.97;;
2638;SDS011;1329;51.384;7.122;2023-04-15T14:14:32;6.07;;;5.50;;
2638;SDS011;1329;51.384;7.122;2023-04-15T14:17:02;5.80;;;5.20;;
2638;SDS011;1329;51.384;7.122;2023-04-15T14:19:31;6.10;;;5.50;;
2638;SDS011;1329;51.384;7.122;2023-04-15T14:21:58;5.73;;;5.23;;
2638;SDS011;1329;51.384;7.122;2023-04-15T14:24:26;5.33;;;4.83;;
2638;SDS011;1329;51.384;7.122;2023-04-15T14:26:53;5.80;;;5.23;;
2638;SDS011;1329;51.384;7.122;2023-04-15T14:29:20;5.43;;;4.93;;
2638;SDS011;1329;51.384;7.122;2023-04-15T14:31:47;5.53;;;5.03;;
2638;SDS011;1329;51.384;7.122;2023-04-15T14:34:18;5.33;;;4.83;;
2638;SDS011;1329;51.384;7.122;2023-04-15T14:36:50;5.80;;;5.30;;
2638;SDS011;1329;51.384;7.122;2023-04-15T14:39:20;5.13;;;4.63;;
2638;SDS011;1329;51.384;7.122;2023-04-15T14:41:47;5.70;;;5.20;;
2638;SDS011;1329;51.384;7.122;2023-04-15T14:44:15;5.00;;;4.60;;
2638;SDS011;1329;51.384;7.122;2023-04-15T14:46:43;5.23;;;4.80;;
2638;SDS011;1329;51.384;7.122;2023-04-15T14:49:10;5.07;;;4.67;;
2638;SDS011;1329;51.384;7.122;2023-04-15T14:51:37;5.03;;;4.60;;
2638;SDS011;1329;51.384;7.122;2023-04-15T14:54:06;5.30;;;4.80;;
2638;SDS011;1329;51.384;7.122;2023-04-15T14:56:37;6.00;;;5.27;;
2638;SDS011;1329;51.384;7.122;2023-04-15T14:59:05;5.27;;;4.77;;
2638;SDS011;1329;51.384;7.122;2023-04-15T15:01:32;5.47;;;4.90;;
2638;SDS011;1329;51.384;7.122;2023-04-15T15:04:00;4.90;;;4.50;;
2638;SDS011;1329;51.384;7.122;2023-04-15T15:06:29;5.00;;;4.43;;
2638;SDS011;1329;51.384;7.122;2023-04-15T15:09:00;5.30;;;4.60;;
2638;SDS011;1329;51.384;7.122;2023-04-15T15:11:39;5.00;;;4.50;;
2638;SDS011;1329;51.384;7.122;2023-04-15T15:14:10;5.30;;;4.80;;
2638;SDS011;1329;51.384;7.122;2023-04-15T15:16:41;5.53;;;4.60;;
2638;SDS011;1329;51.384;7.122;2023-04-15T15:19:08;4.87;;;4.47;;
2638;SDS011;1329;51.384;7.122;2023-04-15T15:21:35;4.90;;;4.40;;
2638;SDS011;1329;51.384;7.122;2023-04-15T15:24:02;5.10;;;4.40;;
2638;SDS011;1329;51.384;7.122;2023-04-15T15:26:30;5.07;;;4.53;;
2638;SDS011;1329;51.384;7.122;2023-04-15T15:28:59;4.83;;;4.47;;
2638;SDS011;1329;51.384;7.122;2023-04-15T15:31:26;5.20;;;4.70;;
2638;SDS011;1329;51.384;7.122;2023-04-15T15:33:53;4.90;;;4.40;;
2638;SDS011;1329;51.384;7.122;2023-04-15T15:36:20;5.27;;;4.87;;
2638;SDS011;1329;51.384;7.122;2023-04-15T15:38:47;5.20;;;4.70;;
2638;SDS011;1329;51.384;7.122;2023-04-15T15:41:18;4.67;;;4.27;;